Time;durP1;ratioP1;P1;durP2;ratioP2;P2;SDS_P1;SDS_P2;PMS_P1;PMS_P2;Temp;Humidity;BMP_temperature;BMP_pressure;BME280_temperature;BME280_humidity;BME280_pressure;Samples;Min_cycle;Max_cycle;Signal;HPM_P1;HPM_P2
2022/10/07 00:01:47;;;;;;;17.90;8.95;;;13.70;99.90;;;;;;5073349;28;20059;-82
2022/10/07 00:04:14;;;;;;;16.58;8.80;;;13.70;99.90;;;;;;5074249;28;20040;-84
2022/10/07 00:06:40;;;;;;;18.90;9.68;;;13.70;99.90;;;;;;5073902;28;20012;-82
2022/10/07 00:09:05;;;;;;;17.00;9.13;;;13.70;99.90;;;;;;5065960;28;20032;-84
2022/10/07 00:11:31;;;;;;;16.83;9.32;;;13.70;99.90;;;;;;5060594;28;20025;-83
2022/10/07 00:14:00;;;;;;;22.63;9.27;;;13.60;99.90;;;;;;5059222;28;20021;-84
2022/10/07 00:16:29;;;;;;;16.30;9.88;;;13.60;99.90;;;;;;5051735;28;20055;-84
2022/10/07 00:18:57;;;;;;;14.07;9.00;;;13.60;99.90;;;;;;5057522;28;20052;-85
2022/10/07 00:21:25;;;;;;;13.77;9.27;;;13.60;99.90;;;;;;5070816;28;20017;-86
2022/10/07 00:23:51;;;;;;;19.77;9.30;;;13.60;99.90;;;;;;5060548;28;20122;-86
2022/10/07 00:26:20;;;;;;;26.48;10.15;;;13.50;99.90;;;;;;5051173;28;20025;-85
2022/10/07 00:28:47;;;;;;;17.10;9.80;;;13.50;99.90;;;;;;5047542;28;20029;-85
2022/10/07 00:31:16;;;;;;;28.80;10.43;;;13.50;99.90;;;;;;5049379;28;20040;-84
2022/10/07 00:33:43;;;;;;;21.27;10.10;;;13.50;99.90;;;;;;5054888;28;20022;-86
2022/10/07 00:36:10;;;;;;;21.45;10.75;;;13.50;99.90;;;;;;5057530;28;20013;-82
2022/10/07 00:38:37;;;;;;;20.13;10.48;;;13.50;99.90;;;;;;5059839;28;20029;-81
2022/10/07 00:41:03;;;;;;;20.42;10.82;;;13.50;99.90;;;;;;5076900;28;20025;-83
2022/10/07 00:43:30;;;;;;;18.60;10.93;;;13.50;99.90;;;;;;5077194;28;20017;-80
2022/10/07 00:46:06;;;;;;;18.92;10.40;;;13.50;99.90;;;;;;5076646;28;20078;-81
2022/10/07 00:48:35;;;;;;;17.30;10.82;;;13.40;99.90;;;;;;5070860;28;20024;-80
2022/10/07 00:51:02;;;;;;;23.33;11.13;;;13.50;99.90;;;;;;5071339;28;20013;-81
2022/10/07 00:53:32;;;;;;;20.92;10.88;;;13.50;99.90;;;;;;5075419;28;20040;-81
2022/10/07 00:56:02;;;;;;;23.23;10.43;;;13.50;99.90;;;;;;5076326;28;20029;-83
2022/10/07 00:58:31;;;;;;;21.08;11.25;;;13.40;99.90;;;;;;5076017;28;20117;-83
2022/10/07 01:00:58;;;;;;;25.25;11.48;;;13.40;99.90;;;;;;5061691;28;20037;-83
2022/10/07 01:03:24;;;;;;;18.63;11.60;;;13.40;99.90;;;;;;5056643;28;20017;-84
2022/10/07 01:05:50;;;;;;;24.73;12.93;;;13.40;99.90;;;;;;5039698;28;20048;-82
2022/10/07 01:08:18;;;;;;;22.63;12.07;;;13.40;99.90;;;;;;5056499;28;20029;-85
2022/10/07 01:11:12;;;;;;;20.67;12.30;;;13.30;99.90;;;;;;5069830;28;20024;-84
2022/10/07 01:14:23;;;;;;;20.90;12.52;;;13.30;99.90;;;;;;5077058;28;20087;-82
2022/10/07 01:17:06;;;;;;;21.20;12.70;;;13.30;99.90;;;;;;5076502;28;20036;-83
2022/10/07 01:20:07;;;;;;;23.98;12.32;;;13.30;99.90;;;;;;5073726;28;20060;-82
2022/10/07 01:22:53;;;;;;;20.67;12.63;;;13.30;99.90;;;;;;5056662;28;20025;-80
2022/10/07 01:25:31;;;;;;;20.23;12.00;;;13.30;99.90;;;;;;5056724;28;20017;-81
2022/10/07 01:28:06;;;;;;;21.88;12.77;;;13.30;99.90;;;;;;5055956;28;20075;-81
2022/10/07 01:30:37;;;;;;;25.77;12.88;;;13.30;99.90;;;;;;5056650;28;20009;-83
2022/10/07 01:33:07;;;;;;;21.63;11.98;;;13.30;99.90;;;;;;5055894;28;20116;-82
2022/10/07 01:35:35;;;;;;;20.90;12.52;;;13.30;99.90;;;;;;5055817;28;20060;-81
2022/10/07 01:38:06;;;;;;;25.48;13.88;;;13.30;99.90;;;;;;5055183;28;20033;-80
2022/10/07 01:40:41;;;;;;;24.10;14.27;;;13.30;99.90;;;;;;5054939;28;20065;-82
2022/10/07 01:43:08;;;;;;;26.27;15.55;;;13.20;99.90;;;;;;5055527;28;20026;-81
2022/10/07 01:45:39;;;;;;;25.63;15.63;;;13.20;99.90;;;;;;5055347;28;20009;-80
2022/10/07 01:48:05;;;;;;;23.23;14.77;;;13.20;99.90;;;;;;5055504;28;20030;-81
2022/10/07 01:50:32;;;;;;;24.35;14.90;;;13.10;99.90;;;;;;5057601;28;20093;-81
2022/10/07 01:53:20;;;;;;;26.10;14.82;;;13.20;99.90;;;;;;5059212;28;20025;-81
2022/10/07 01:56:10;;;;;;;21.60;15.30;;;13.10;99.90;;;;;;5059406;28;20117;-82
2022/10/07 01:59:13;;;;;;;21.60;13.82;;;13.10;99.90;;;;;;5058349;28;20055;-82
2022/10/07 02:02:11;;;;;;;29.30;14.07;;;13.10;99.90;;;;;;5051151;28;20033;-84
2022/10/07 02:04:46;;;;;;;22.40;12.75;;;13.10;99.90;;;;;;5048474;28;20038;-84
2022/10/07 02:07:28;;;;;;;20.05;13.20;;;13.00;99.90;;;;;;5044933;28;20116;-83
2022/10/07 02:10:06;;;;;;;25.45;13.57;;;13.00;99.90;;;;;;5046305;28;20029;-85
2022/10/07 02:13:06;;;;;;;21.95;13.13;;;13.00;99.90;;;;;;5063130;28;20033;-84
2022/10/07 02:15:57;;;;;;;22.00;14.07;;;13.00;99.90;;;;;;5055140;28;20045;-84
2022/10/07 02:18:26;;;;;;;24.65;13.68;;;13.00;99.90;;;;;;5031467;28;20608;-83
2022/10/07 02:20:54;;;;;;;22.70;13.82;;;13.00;99.90;;;;;;5041701;28;20029;-85
2022/10/07 02:23:21;;;;;;;19.17;12.50;;;12.90;99.90;;;;;;5044831;28;20457;-87
2022/10/07 02:25:49;;;;;;;19.13;13.63;;;13.00;99.90;;;;;;5055866;28;20024;-86
2022/10/07 02:28:18;;;;;;;25.52;13.70;;;12.90;99.90;;;;;;5071326;28;20025;-86
2022/10/07 02:30:52;;;;;;;19.25;12.93;;;12.90;99.90;;;;;;5045312;28;20033;-86
2022/10/07 02:33:21;;;;;;;23.88;13.57;;;12.90;99.90;;;;;;5047780;28;20104;-86
2022/10/07 02:35:51;;;;;;;25.10;13.75;;;12.90;99.90;;;;;;5050790;28;20029;-85
2022/10/07 02:38:18;;;;;;;18.83;13.10;;;12.80;99.90;;;;;;5068258;28;20025;-86
2022/10/07 02:41:10;;;;;;;23.73;13.55;;;12.80;99.90;;;;;;5056077;28;20089;-84
2022/10/07 02:43:49;;;;;;;21.60;13.60;;;12.80;99.90;;;;;;5051346;28;20048;-85
2022/10/07 02:46:29;;;;;;;21.90;13.57;;;12.80;99.90;;;;;;5058721;28;20029;-85
2022/10/07 02:48:59;;;;;;;24.75;13.00;;;12.80;99.90;;;;;;5066466;28;20053;-84
2022/10/07 02:51:32;;;;;;;20.92;13.13;;;12.70;99.90;;;;;;5055053;28;20126;-82
2022/10/07 02:54:02;;;;;;;24.00;13.90;;;12.70;99.90;;;;;;5061291;28;20103;-83
2022/10/07 02:56:31;;;;;;;19.38;13.55;;;12.70;99.90;;;;;;5054034;28;20315;-83
2022/10/07 02:59:00;;;;;;;24.75;13.70;;;12.60;99.90;;;;;;5053200;28;20092;-86
2022/10/07 03:01:32;;;;;;;22.77;13.10;;;12.60;99.90;;;;;;5065878;28;20036;-85
2022/10/07 03:03:59;;;;;;;27.75;15.00;;;12.60;99.90;;;;;;5065362;28;20043;-85
2022/10/07 03:06:28;;;;;;;24.42;14.38;;;12.60;99.90;;;;;;5065527;28;20044;-82
2022/10/07 03:08:56;;;;;;;25.10;15.27;;;12.60;99.90;;;;;;5069687;28;20029;-86
2022/10/07 03:11:23;;;;;;;31.20;15.20;;;12.60;99.90;;;;;;5050881;28;20029;-85
2022/10/07 03:13:49;;;;;;;29.15;15.52;;;12.60;99.90;;;;;;5052522;28;20067;-86
2022/10/07 03:16:16;;;;;;;21.92;15.77;;;12.50;99.90;;;;;;5054232;28;20018;-86
2022/10/07 03:18:44;;;;;;;25.45;15.35;;;12.50;99.90;;;;;;5050326;28;20025;-87
2022/10/07 03:21:17;;;;;;;21.27;15.23;;;12.50;99.90;;;;;;5041397;28;20057;-84
2022/10/07 03:23:48;;;;;;;27.90;17.00;;;12.50;99.90;;;;;;5067650;28;20029;-83
2022/10/07 03:26:16;;;;;;;28.20;16.77;;;12.50;99.90;;;;;;5065341;28;20036;-86
2022/10/07 03:28:42;;;;;;;31.80;18.10;;;12.50;99.90;;;;;;5065390;28;20028;-87
2022/10/07 03:31:10;;;;;;;27.27;18.15;;;12.50;99.90;;;;;;5061318;28;20108;-84
2022/10/07 03:33:42;;;;;;;30.70;17.63;;;12.40;99.90;;;;;;5033879;28;20053;-82
2022/10/07 03:36:08;;;;;;;30.20;17.80;;;12.50;99.90;;;;;;5038563;28;20079;-84
2022/10/07 03:38:35;;;;;;;28.63;17.73;;;12.40;99.90;;;;;;5054766;28;20091;-85
2022/10/07 03:41:03;;;;;;;32.65;20.08;;;12.40;99.90;;;;;;5073350;28;20047;-83
2022/10/07 03:43:31;;;;;;;34.60;19.17;;;12.40;99.90;;;;;;5073210;28;20041;-83
2022/10/07 03:45:57;;;;;;;25.05;18.42;;;12.40;99.90;;;;;;5074264;28;20024;-86
2022/10/07 03:48:23;;;;;;;29.70;18.95;;;12.40;99.90;;;;;;5069487;28;20025;-84
2022/10/07 03:50:51;;;;;;;31.80;19.58;;;12.40;99.90;;;;;;5066226;28;20040;-81
2022/10/07 03:53:19;;;;;;;31.17;19.73;;;12.40;99.90;;;;;;5074638;28;20041;-81
2022/10/07 03:55:45;;;;;;;40.53;20.77;;;12.40;99.90;;;;;;5075831;28;20025;-81
2022/10/07 03:58:13;;;;;;;34.40;19.80;;;12.40;99.90;;;;;;5056658;28;20081;-84
2022/10/07 04:00:40;;;;;;;34.80;21.27;;;12.30;99.90;;;;;;5064015;28;20576;-85
2022/10/07 04:03:06;;;;;;;34.47;20.20;;;12.30;99.90;;;;;;5063454;28;20021;-85
2022/10/07 04:05:34;;;;;;;35.00;20.33;;;12.30;99.90;;;;;;5060676;28;20108;-86
2022/10/07 04:08:00;;;;;;;32.20;20.08;;;12.30;99.90;;;;;;5062180;28;20067;-84
2022/10/07 04:10:26;;;;;;;34.67;19.83;;;12.30;99.90;;;;;;5062797;28;20021;-81
2022/10/07 04:12:52;;;;;;;34.47;20.50;;;12.30;99.90;;;;;;5074490;28;20111;-83
2022/10/07 04:15:20;;;;;;;35.45;20.65;;;12.20;99.90;;;;;;5074927;28;20017;-83
2022/10/07 04:17:47;;;;;;;36.45;21.45;;;12.20;99.90;;;;;;5074632;28;20287;-84
2022/10/07 04:20:16;;;;;;;39.90;21.38;;;12.20;99.90;;;;;;5072142;28;20029;-86
2022/10/07 04:22:42;;;;;;;35.20;20.42;;;12.20;99.90;;;;;;5055549;28;20033;-86
2022/10/07 04:27:57;;;;;;;35.33;21.90;;;12.20;99.90;;;;;;5060335;28;20025;-82
2022/10/07 04:30:28;;;;;;;32.88;21.48;;;12.20;99.90;;;;;;5042508;28;20060;-87
2022/10/07 04:32:54;;;;;;;38.42;21.17;;;12.20;99.90;;;;;;5049278;28;20033;-86
2022/10/07 04:35:22;;;;;;;41.03;22.95;;;12.10;99.90;;;;;;5060198;28;20080;-86
2022/10/07 04:37:50;;;;;;;37.88;22.35;;;12.10;99.90;;;;;;5060905;28;20044;-85
2022/10/07 04:40:18;;;;;;;35.70;22.35;;;12.10;99.90;;;;;;5043781;28;20025;-86
2022/10/07 04:45:34;;;;;;;34.65;22.23;;;12.10;99.90;;;;;;5052166;28;20025;-83
2022/10/07 04:48:04;;;;;;;37.40;22.23;;;12.20;99.90;;;;;;5071211;28;20038;-83
2022/10/07 04:50:32;;;;;;;40.10;24.83;;;12.20;99.90;;;;;;5067739;28;20021;-85
2022/10/07 04:52:59;;;;;;;42.78;25.83;;;12.20;99.90;;;;;;5075983;28;20044;-84
2022/10/07 04:55:28;;;;;;;43.88;24.13;;;12.20;99.90;;;;;;5068465;28;20029;-88
2022/10/07 04:57:55;;;;;;;48.53;26.65;;;12.20;99.90;;;;;;5062156;28;20526;-83
2022/10/07 05:00:20;;;;;;;46.85;25.80;;;12.20;99.90;;;;;;5050990;28;20033;-87
2022/10/07 05:02:49;;;;;;;46.63;26.33;;;12.20;99.90;;;;;;5061685;23;20042;-86
2022/10/07 05:05:18;;;;;;;44.17;26.55;;;12.10;99.90;;;;;;5027625;28;20033;-84
2022/10/07 05:07:49;;;;;;;46.83;27.98;;;12.20;99.90;;;;;;5029114;28;20030;-85
2022/10/07 05:10:17;;;;;;;45.70;26.08;;;12.10;99.90;;;;;;5024390;28;20026;-85
2022/10/07 05:12:43;;;;;;;47.08;27.65;;;12.10;99.90;;;;;;5025856;28;20053;-87
2022/10/07 05:15:09;;;;;;;51.35;27.70;;;12.10;99.90;;;;;;5026174;28;20030;-85
2022/10/07 05:17:35;;;;;;;53.83;30.38;;;12.10;99.90;;;;;;5025265;28;20077;-85
2022/10/07 05:20:03;;;;;;;57.30;30.05;;;12.10;99.90;;;;;;5017500;28;20041;-84
2022/10/07 05:22:30;;;;;;;54.60;30.30;;;12.10;99.90;;;;;;5023644;28;20034;-85
2022/10/07 05:24:57;;;;;;;58.08;32.20;;;12.10;99.90;;;;;;5011813;28;20107;-84
2022/10/07 05:27:23;;;;;;;51.47;30.08;;;12.10;99.90;;;;;;5030847;28;20022;-85
2022/10/07 05:29:49;;;;;;;55.75;30.83;;;12.00;99.90;;;;;;5030756;28;20041;-84
2022/10/07 05:32:15;;;;;;;62.65;31.65;;;12.00;99.90;;;;;;5046957;28;20053;-84
2022/10/07 05:34:41;;;;;;;56.20;31.30;;;12.10;99.90;;;;;;5042570;28;20105;-84
2022/10/07 05:37:07;;;;;;;80.75;32.90;;;12.00;99.90;;;;;;5029554;28;20030;-84
2022/10/07 05:39:32;;;;;;;60.42;31.58;;;12.00;99.90;;;;;;5034899;28;20022;-85
2022/10/07 05:42:08;;;;;;;55.67;30.05;;;11.90;99.90;;;;;;5032655;28;20304;-82
2022/10/07 05:44:40;;;;;;;55.33;31.02;;;12.00;99.90;;;;;;5035350;28;20021;-81
2022/10/07 05:47:06;;;;;;;57.25;31.70;;;12.00;99.90;;;;;;5038281;28;20041;-82
2022/10/07 05:49:32;;;;;;;65.25;30.77;;;11.90;99.90;;;;;;5037644;28;20030;-84
2022/10/07 05:51:58;;;;;;;53.13;28.80;;;11.90;99.90;;;;;;5038323;28;20025;-83
2022/10/07 05:54:24;;;;;;;49.33;27.83;;;12.00;99.90;;;;;;5047201;28;20012;-82
2022/10/07 05:56:52;;;;;;;43.30;26.52;;;12.00;99.90;;;;;;5042049;28;20034;-80
2022/10/07 05:59:19;;;;;;;45.22;24.67;;;12.00;99.90;;;;;;5051859;28;20026;-84
2022/10/07 06:01:46;;;;;;;46.72;24.77;;;12.00;99.90;;;;;;5035481;28;20545;-84
2022/10/07 06:04:18;;;;;;;41.60;24.83;;;12.00;99.90;;;;;;5019529;28;20288;-81
2022/10/07 06:06:46;;;;;;;41.47;24.42;;;12.00;99.90;;;;;;5036141;28;20081;-82
2022/10/07 06:14:49;;;;;;;35.47;20.73;;;12.10;99.90;;;;;;5028888;28;20073;-85
2022/10/07 06:17:15;;;;;;;34.42;19.38;;;12.10;99.90;;;;;;5024755;28;20022;-83
2022/10/07 06:19:44;;;;;;;30.13;17.77;;;12.10;99.90;;;;;;5024037;28;20482;-83
2022/10/07 06:22:10;;;;;;;28.63;18.33;;;12.10;99.90;;;;;;5023805;28;20037;-83
2022/10/07 06:24:37;;;;;;;28.90;17.58;;;12.10;99.90;;;;;;5023969;28;20022;-84
2022/10/07 06:27:04;;;;;;;36.83;18.23;;;12.20;99.90;;;;;;5025439;28;20049;-84
2022/10/07 06:29:30;;;;;;;29.52;16.23;;;12.30;99.90;;;;;;5023390;28;20061;-82
2022/10/07 06:31:56;;;;;;;30.67;17.27;;;12.30;99.90;;;;;;5023270;28;20526;-83
2022/10/07 06:34:22;;;;;;;26.42;16.85;;;12.40;99.90;;;;;;5023420;28;20025;-84
2022/10/07 06:36:48;;;;;;;28.90;16.35;;;12.40;99.90;;;;;;5023405;28;20084;-82
2022/10/07 06:39:16;;;;;;;30.35;17.77;;;12.40;99.90;;;;;;5024996;28;20032;-83
2022/10/07 06:41:44;;;;;;;28.63;17.80;;;12.50;99.90;;;;;;5025843;28;20036;-83
2022/10/07 06:44:30;;;;;;;30.38;17.50;;;12.50;99.90;;;;;;5025495;28;20062;-83
2022/10/07 06:46:56;;;;;;;31.77;17.25;;;12.60;99.90;;;;;;5022742;28;20018;-84
2022/10/07 06:49:30;;;;;;;32.63;15.80;;;12.70;99.90;;;;;;5027199;28;20109;-84
2022/10/07 06:51:56;;;;;;;35.00;16.15;;;12.90;99.90;;;;;;5020473;28;20038;-83
2022/10/07 06:54:31;;;;;;;26.63;15.63;;;13.00;99.90;;;;;;5008760;28;20059;-83
2022/10/07 06:56:57;;;;;;;27.48;14.75;;;13.20;99.90;;;;;;5023751;28;20034;-84
2022/10/07 06:59:22;;;;;;;27.33;13.85;;;13.30;99.90;;;;;;5033870;28;20164;-84
2022/10/07 07:01:58;;;;;;;26.40;13.77;;;13.40;99.90;;;;;;5025236;28;20068;-84
2022/10/07 07:04:25;;;;;;;24.85;14.18;;;13.60;99.90;;;;;;5029222;28;20068;-84
2022/10/07 07:06:51;;;;;;;25.45;12.80;;;13.80;99.90;;;;;;5029626;28;20029;-84
2022/10/07 07:09:21;;;;;;;28.13;12.95;;;14.10;99.90;;;;;;5028255;28;20085;-84
2022/10/07 07:11:49;;;;;;;22.15;12.18;;;14.20;99.90;;;;;;5033217;28;20030;-83
2022/10/07 07:14:21;;;;;;;31.20;13.00;;;14.40;99.90;;;;;;5031338;28;20022;-86
2022/10/07 07:16:53;;;;;;;24.40;12.27;;;14.60;99.90;;;;;;5041607;28;20029;-83
2022/10/07 07:19:21;;;;;;;23.30;13.45;;;14.70;99.90;;;;;;5026196;28;20037;-83
2022/10/07 07:21:47;;;;;;;29.27;14.70;;;14.70;99.90;;;;;;5025750;28;20026;-84
2022/10/07 07:24:15;;;;;;;29.77;15.25;;;14.60;99.90;;;;;;5027344;28;20117;-83
2022/10/07 07:26:42;;;;;;;33.17;16.40;;;14.60;99.90;;;;;;5027439;28;20084;-84
2022/10/07 07:29:11;;;;;;;23.00;15.38;;;14.50;99.90;;;;;;5027177;28;20030;-82
2022/10/07 07:31:42;;;;;;;31.45;15.95;;;14.60;99.90;;;;;;5034222;28;20045;-82
2022/10/07 07:34:11;;;;;;;27.15;16.67;;;14.60;99.90;;;;;;5035069;28;20014;-83
2022/10/07 07:36:41;;;;;;;29.98;16.05;;;14.70;99.90;;;;;;5034652;28;20026;-83
2022/10/07 07:39:11;;;;;;;29.05;17.48;;;14.80;99.90;;;;;;5036469;28;20029;-83
2022/10/07 07:41:40;;;;;;;37.85;18.50;;;14.80;99.90;;;;;;5033327;28;20033;-83
2022/10/07 07:44:10;;;;;;;34.95;19.17;;;14.90;99.90;;;;;;5025331;28;20040;-83
2022/10/07 07:46:44;;;;;;;33.75;18.13;;;14.90;99.90;;;;;;5029505;28;20105;-83
2022/10/07 07:49:12;;;;;;;36.05;19.58;;;14.90;99.90;;;;;;5028336;28;20039;-84
2022/10/07 07:51:41;;;;;;;28.70;19.63;;;14.90;99.90;;;;;;5027920;28;20038;-82
2022/10/07 07:54:11;;;;;;;37.90;20.73;;;15.00;99.90;;;;;;5028257;28;20397;-84
2022/10/07 07:56:38;;;;;;;32.25;19.63;;;15.00;99.90;;;;;;5027220;28;20098;-83
2022/10/07 07:59:07;;;;;;;38.63;20.70;;;15.00;99.90;;;;;;5028748;28;20026;-83
2022/10/07 08:01:34;;;;;;;35.38;22.15;;;15.10;99.90;;;;;;5027040;28;20454;-82
2022/10/07 08:04:03;;;;;;;38.10;20.77;;;15.20;99.90;;;;;;5040771;28;20057;-83
2022/10/07 08:06:30;;;;;;;38.38;22.23;;;15.30;99.90;;;;;;5025222;28;20029;-85
2022/10/07 08:08:58;;;;;;;34.42;20.63;;;15.40;99.90;;;;;;5041942;28;20002;-83
2022/10/07 08:11:27;;;;;;;34.10;20.90;;;15.40;99.90;;;;;;5047683;28;20037;-82
2022/10/07 08:13:54;;;;;;;39.97;21.08;;;15.50;99.90;;;;;;5030003;28;20036;-83
2022/10/07 08:16:24;;;;;;;34.28;21.98;;;15.60;99.90;;;;;;5030332;28;20383;-83
2022/10/07 08:18:53;;;;;;;35.13;20.95;;;15.70;99.90;;;;;;5031979;28;20026;-83
2022/10/07 08:21:22;;;;;;;37.45;21.38;;;15.70;99.90;;;;;;5029378;28;20069;-82
2022/10/07 08:23:57;;;;;;;35.33;20.13;;;15.80;99.90;;;;;;5028195;28;20168;-83
2022/10/07 08:26:27;;;;;;;36.53;21.60;;;15.90;99.90;;;;;;5031717;28;20105;-84
2022/10/07 08:28:54;;;;;;;31.20;21.17;;;15.90;99.90;;;;;;5029111;28;20037;-84
2022/10/07 08:31:21;;;;;;;35.28;21.30;;;15.90;99.90;;;;;;5033700;28;20089;-84
2022/10/07 08:33:48;;;;;;;35.40;21.48;;;16.00;99.90;;;;;;5037462;28;20029;-82
2022/10/07 08:36:19;;;;;;;32.75;21.45;;;16.20;99.90;;;;;;5037292;28;20070;-83
2022/10/07 08:38:46;;;;;;;31.33;19.67;;;16.50;99.90;;;;;;5037713;28;20010;-83
2022/10/07 08:41:31;;;;;;;29.88;18.40;;;16.90;99.90;;;;;;5028133;28;20073;-84
2022/10/07 08:43:58;;;;;;;29.67;18.25;;;17.50;99.90;;;;;;5024633;28;20034;-83
2022/10/07 08:46:30;;;;;;;30.33;18.55;;;17.90;99.90;;;;;;5023609;28;20097;-83
2022/10/07 08:49:07;;;;;;;31.73;18.15;;;18.30;99.90;;;;;;5022499;28;20057;-82
2022/10/07 08:51:49;;;;;;;30.00;18.42;;;19.10;99.90;;;;;;5006920;28;20124;-84
2022/10/07 08:54:26;;;;;;;30.17;18.98;;;19.70;99.90;;;;;;5024724;28;20036;-84
2022/10/07 08:56:54;;;;;;;28.40;18.38;;;20.20;99.90;;;;;;5024058;28;20049;-84
2022/10/07 08:59:27;;;;;;;27.83;18.30;;;20.90;99.90;;;;;;5026287;28;20030;-82
2022/10/07 09:02:12;;;;;;;35.85;19.42;;;21.90;99.90;;;;;;5028901;28;20030;-84
2022/10/07 09:05:06;;;;;;;30.88;19.38;;;22.50;99.90;;;;;;5028685;28;20033;-83
2022/10/07 09:07:36;;;;;;;33.78;18.95;;;22.70;99.90;;;;;;5030104;28;20038;-84
2022/10/07 09:10:08;;;;;;;28.83;19.27;;;23.10;99.90;;;;;;5028862;28;20026;-83
2022/10/07 09:12:56;;;;;;;30.67;19.15;;;23.70;99.90;;;;;;5029024;28;20034;-84
2022/10/07 09:15:38;;;;;;;32.10;18.58;;;24.20;99.90;;;;;;5027097;28;20041;-83
2022/10/07 09:18:15;;;;;;;36.20;21.95;;;25.00;99.90;;;;;;5029936;28;20085;-84
2022/10/07 09:20:45;;;;;;;30.10;18.40;;;26.30;99.90;;;;;;5036922;28;20061;-84
2022/10/07 09:23:14;;;;;;;30.50;17.85;;;26.80;99.90;;;;;;5028726;28;20049;-84
2022/10/07 09:25:40;;;;;;;24.38;16.20;;;27.40;99.30;;;;;;5030703;28;20049;-83
2022/10/07 09:28:16;;;;;;;24.75;16.35;;;27.70;98.40;;;;;;5036648;28;20038;-84
2022/10/07 09:30:42;;;;;;;23.27;15.68;;;28.10;97.20;;;;;;5029198;28;20026;-84
2022/10/07 09:33:18;;;;;;;23.70;14.63;;;28.40;96.60;;;;;;5028221;28;20096;-85
2022/10/07 09:35:53;;;;;;;29.73;15.60;;;28.60;95.90;;;;;;5030699;28;20029;-83
2022/10/07 09:38:37;;;;;;;21.25;14.52;;;29.00;95.00;;;;;;5039729;28;20030;-83
2022/10/07 09:41:31;;;;;;;27.73;15.25;;;28.40;95.10;;;;;;5039854;28;20037;-84
2022/10/07 09:44:22;;;;;;;22.08;14.07;;;27.90;95.60;;;;;;5040495;28;20060;-84
2022/10/07 09:46:52;;;;;;;24.08;14.55;;;28.60;94.80;;;;;;5038387;28;20046;-84
2022/10/07 09:49:27;;;;;;;24.70;15.27;;;29.30;93.90;;;;;;5028382;28;20485;-84
2022/10/07 09:52:01;;;;;;;20.42;13.50;;;28.80;93.60;;;;;;5029109;28;20026;-83
2022/10/07 09:54:28;;;;;;;;;;;28.70;93.60;;;;;;5028971;28;20026;-84
2022/10/07 09:56:56;;;;;;;20.58;13.57;;;28.70;93.40;;;;;;5027702;28;19905;-83
2022/10/07 09:59:22;;;;;;;20.35;13.52;;;29.20;92.80;;;;;;5027747;28;20493;-83
2022/10/07 10:01:53;;;;;;;20.83;13.32;;;29.30;92.40;;;;;;5042214;28;20033;-84
2022/10/07 10:04:25;;;;;;;25.33;13.95;;;29.90;92.00;;;;;;5029434;28;20088;-83
2022/10/07 10:07:00;;;;;;;17.38;12.43;;;29.50;91.70;;;;;;5029161;28;20080;-85
2022/10/07 10:09:26;;;;;;;16.63;11.27;;;29.50;91.50;;;;;;5026677;28;20415;-85
2022/10/07 10:12:20;;;;;;;20.90;13.10;;;29.30;91.60;;;;;;5028573;28;20478;-84
2022/10/07 10:14:49;;;;;;;19.75;12.43;;;29.80;91.00;;;;;;5023467;28;20113;-84
2022/10/07 10:17:41;;;;;;;19.52;13.35;;;29.90;90.30;;;;;;5027745;28;20366;-84
2022/10/07 10:20:43;;;;;;;19.30;12.10;;;30.20;89.60;;;;;;5024562;28;20041;-84
2022/10/07 10:23:28;;;;;;;19.10;13.07;;;30.10;89.00;;;;;;5027668;28;20034;-84
2022/10/07 10:26:25;;;;;;;22.75;14.95;;;29.50;89.60;;;;;;5031567;28;20030;-84
2022/10/07 10:29:12;;;;;;;20.33;14.15;;;29.10;90.00;;;;;;5033030;28;20038;-84
2022/10/07 10:32:00;;;;;;;22.83;14.50;;;29.40;89.40;;;;;;5033054;28;20034;-82
2022/10/07 10:34:44;;;;;;;24.77;13.70;;;29.20;89.50;;;;;;5031684;28;20022;-85
2022/10/07 10:37:19;;;;;;;20.45;13.90;;;29.50;88.40;;;;;;5032883;28;20033;-84
2022/10/07 10:40:13;;;;;;;20.38;14.35;;;29.80;87.40;;;;;;5033841;28;20030;-84
2022/10/07 10:42:43;;;;;;;29.23;14.13;;;29.50;86.80;;;;;;5036830;28;20048;-84
2022/10/07 10:45:24;;;;;;;17.77;12.68;;;29.10;87.00;;;;;;5033863;28;20037;-84
2022/10/07 10:48:01;;;;;;;16.38;9.80;;;29.50;87.20;;;;;;5020941;28;20100;-81
2022/10/07 10:50:44;;;;;;;17.08;10.00;;;29.90;89.80;;;;;;5017278;28;20102;-82
2022/10/07 10:53:32;;;;;;;16.15;9.20;;;30.80;86.90;;;;;;5025061;28;20213;-83
2022/10/07 10:56:25;;;;;;;13.57;9.52;;;30.70;83.70;;;;;;5018336;28;20061;-82
2022/10/07 10:59:29;;;;;;;15.20;9.70;;;29.70;86.50;;;;;;5028580;28;20026;-80
2022/10/07 11:02:25;;;;;;;12.52;8.57;;;29.60;87.70;;;;;;5016871;28;20537;-82
2022/10/07 11:05:13;;;;;;;14.73;9.32;;;29.40;85.80;;;;;;5045922;22;20049;-86
2022/10/07 11:07:54;;;;;;;15.10;9.63;;;29.00;87.00;;;;;;5013101;28;20039;-86
2022/10/07 11:10:45;;;;;;;13.57;9.05;;;28.90;87.30;;;;;;5012696;28;20107;-88
2022/10/07 11:13:26;;;;;;;13.05;8.80;;;29.10;85.80;;;;;;5012499;28;20031;-85
2022/10/07 11:16:10;;;;;;;14.93;9.50;;;29.00;88.00;;;;;;5010977;28;20049;-88
2022/10/07 11:18:41;;;;;;;14.90;9.25;;;28.40;88.10;;;;;;5008985;28;20027;-88
2022/10/07 11:21:13;;;;;;;13.32;8.90;;;28.30;88.50;;;;;;5008779;28;20030;-89
2022/10/07 11:23:49;;;;;;;17.02;10.23;;;28.30;88.30;;;;;;5007598;28;20038;-87
2022/10/07 11:26:21;;;;;;;17.48;11.15;;;28.30;87.90;;;;;;5008303;28;20057;-88
2022/10/07 11:28:49;;;;;;;12.77;9.20;;;28.80;86.00;;;;;;5013729;28;20090;-84
2022/10/07 11:31:37;;;;;;;22.08;8.30;;;28.90;88.00;;;;;;5016969;28;20048;-86
2022/10/07 11:34:27;;;;;;;13.93;8.68;;;29.10;87.40;;;;;;5013149;28;20034;-86
2022/10/07 11:37:05;;;;;;;13.55;8.77;;;29.20;86.10;;;;;;5013092;28;20061;-88
2022/10/07 11:39:35;;;;;;;15.10;8.40;;;29.10;86.50;;;;;;5013382;28;20012;-87
2022/10/07 11:42:10;;;;;;;14.25;8.27;;;29.70;85.70;;;;;;5013667;28;20057;-89
2022/10/07 11:44:49;;;;;;;16.73;8.77;;;30.50;84.70;;;;;;5012215;28;20098;-90
2022/10/07 11:47:19;;;;;;;11.95;8.05;;;30.40;84.10;;;;;;5017571;28;20089;-87
2022/10/07 11:50:10;;;;;;;18.15;8.20;;;30.30;83.80;;;;;;5016159;28;20022;-87
2022/10/07 11:52:45;;;;;;;10.35;7.15;;;30.60;83.50;;;;;;5007377;28;20089;-88
2022/10/07 11:55:25;;;;;;;12.65;7.82;;;30.70;83.10;;;;;;4997392;28;20015;-87
2022/10/07 11:57:55;;;;;;;12.57;7.30;;;30.80;82.80;;;;;;4997895;28;20030;-84
2022/10/07 12:00:21;;;;;;;11.00;6.95;;;30.40;84.60;;;;;;5007278;28;20022;-84
2022/10/07 12:02:47;;;;;;;12.20;7.38;;;30.30;84.40;;;;;;5017005;28;20050;-86
2022/10/07 12:05:32;;;;;;;11.60;7.03;;;30.30;83.40;;;;;;5016898;28;20053;-86
2022/10/07 12:08:01;;;;;;;;;;;30.70;84.00;;;;;;5016740;28;20030;-86
2022/10/07 12:10:28;;;;;;;11.25;7.38;;;30.60;82.60;;;;;;5016384;28;19917;-86
2022/10/07 12:13:19;;;;;;;12.10;7.18;;;30.80;82.30;;;;;;5015002;28;20029;-88
2022/10/07 12:15:46;;;;;;;9.70;7.28;;;31.00;82.60;;;;;;5012547;28;20082;-88
2022/10/07 12:18:16;;;;;;;14.40;7.47;;;31.30;81.40;;;;;;5019063;28;20022;-88
2022/10/07 12:20:56;;;;;;;10.27;6.43;;;31.50;81.60;;;;;;5005600;28;20034;-89
2022/10/07 12:23:24;;;;;;;9.38;6.30;;;31.70;80.50;;;;;;5003289;28;20040;-85
2022/10/07 12:26:22;;;;;;;10.43;6.10;;;31.70;80.70;;;;;;5008541;28;20095;-89
2022/10/07 12:28:48;;;;;;;11.05;5.85;;;31.80;80.30;;;;;;5009491;28;20510;-87
2022/10/07 12:31:14;;;;;;;11.13;6.60;;;31.50;82.60;;;;;;5022534;28;20030;-87
2022/10/07 12:33:45;;;;;;;10.57;6.70;;;30.60;82.00;;;;;;5006642;28;20034;-86
2022/10/07 12:36:20;;;;;;;11.75;6.82;;;28.70;84.30;;;;;;5006898;28;20031;-88
2022/10/07 12:38:57;;;;;;;13.90;6.65;;;27.10;88.00;;;;;;5006791;28;20038;-86
2022/10/07 12:41:29;;;;;;;12.63;7.57;;;26.00;90.70;;;;;;4995139;28;20034;-87
2022/10/07 12:44:05;;;;;;;14.35;6.95;;;25.40;91.40;;;;;;4999488;28;20443;-87
2022/10/07 12:46:36;;;;;;;16.40;6.72;;;24.60;92.10;;;;;;4999707;28;20090;-87
2022/10/07 12:49:24;;;;;;;10.48;5.63;;;24.20;93.30;;;;;;5013676;28;20030;-85
2022/10/07 12:51:52;;;;;;;13.52;6.15;;;23.70;94.80;;;;;;5013559;28;20022;-87
2022/10/07 12:54:23;;;;;;;12.23;6.55;;;23.50;94.50;;;;;;5012429;28;20074;-87
2022/10/07 12:56:49;;;;;;;14.10;5.43;;;23.10;95.00;;;;;;5006453;28;20053;-87
2022/10/07 12:59:47;;;;;;;12.68;5.68;;;23.20;95.50;;;;;;4996500;28;20088;-84
2022/10/07 13:02:47;;;;;;;11.07;5.93;;;24.00;94.80;;;;;;5005415;28;20038;-87
2022/10/07 13:05:38;;;;;;;8.55;5.90;;;24.40;93.10;;;;;;5013866;28;20026;-85
2022/10/07 13:08:40;;;;;;;10.73;5.22;;;24.10;93.50;;;;;;5014939;28;20061;-85
2022/10/07 13:11:09;;;;;;;10.57;5.88;;;23.60;95.50;;;;;;4937112;29;20141;-85